Morant Bay, Jamaica
Current Conditions -  °F | °C
As of 3:00 AM on Monday 22 Dec 2014 (Local Time) from MKJP Reporting Station
Broken Clouds Broken Clouds  
Wind Chill: 79°   Ceiling: 4500
Heat Index: 81°   Visibility: 6mi
Dew Point: 70°   Wind: 9mph
Humidity: 74%   Direction: 10°N
Pressure: 29.91"   Gusts: NA
Location:  17.87°N, 76.39°W
Report Text: MKJP 220800Z 01008KT 9999 FEW024 BKN045 26/21 Q1013
Loading
Personal Weather Stations






























Interactive Weather Map New forecast layout! Learn more

10-Day Weather Forecast

Advertisements
Track Severe Weather on mobile